Darstellungsparameter: Aktuell verwendete Einstellungen:
Skalierung der Graphiken ... ?
xyx+y,   Skalierungsfaktor:      Skalierung: Modus: x, Faktor: 1
Darstellungszeitraum ... ?
Vom - - bis: - -   Zeitraum: 22.08.2015 - 22.08.2015
Min/Max/Avg-Anzeige ... ?
Zeige MMA aktuell
Zeige MMA Monat
Zeige MMA alles
Zeige --A aktuell
Zeige --A Monat
Zeige --A alles
Keine MMA-Anzeige
MMA:
Average (ber die Originaldaten)
MMA-Basis: 22.08.2015 - 22.08.2015
Quicknavigation für Darstellung... ?
Tage:      1T, 2T, 3T, 5T -1T -2T -3T -5T +1T +2T +3T +5T
Wochen: 1W, 2W, 3W -1W -2W -3W +1W +2W +3W
Monate: 1M, 3M, 6M -1M -3M -6M +1M +3M +6M
Jahre:    1J, 3J, 5J, 10J -1J -3J -5J -10J +1J +3J +5J +10J
Nutze für die Darstellung ... ?
Originaldaten oder Mittelwerte auf ...
Stundenbasis Tagesbasis Wochenbasis
Monatsbasis Jahresbasis      Datenbasis: Original-Daten
Darstellen als:
Statistik (Auto) Statistik J:M      Darstellung:
Zur Graphik,    zurück zur Übersicht aller Sensoren.
 
Tabellarische Datenbersicht: ?
 
Sensor: Nr:Datum:Temp:Abs-Feuchte:Windchill:Wind:
Aussen-T/F 1 22-08-2015 00:00:00 15.5 C 9.91 g/m*3 15.5 C 0 km/h
2 22-08-2015 00:05:00 15.4 C 9.99 g/m*3 15.4 C 0 km/h
3 22-08-2015 00:10:00 15.2 C 9.99 g/m*3 15.2 C 0 km/h
4 22-08-2015 00:15:00 15.1 C 9.93 g/m*3 15.1 C 0 km/h
5 22-08-2015 00:20:00 15 C 10 g/m*3 15 C 0 km/h
6 22-08-2015 00:25:00 14.9 C 9.94 g/m*3 14.9 C 0 km/h
7 22-08-2015 00:30:00 14.9 C 9.94 g/m*3 14.9 C 0 km/h
8 22-08-2015 00:35:00 14.8 C 9.75 g/m*3 14.8 C 0 km/h
9 22-08-2015 00:40:00 14.8 C 9.88 g/m*3 14.8 C 0 km/h
10 22-08-2015 00:45:00 14.7 C 9.95 g/m*3 14.7 C 0 km/h
11 22-08-2015 00:50:00 14.6 C 9.76 g/m*3 14.6 C 0 km/h
12 22-08-2015 00:55:00 14.6 C 9.76 g/m*3 14.6 C 0 km/h
13 22-08-2015 01:00:00 14.6 C 9.89 g/m*3 14.6 C 0 km/h
14 22-08-2015 01:05:00 14.5 C 9.7 g/m*3 14.5 C 0 km/h
15 22-08-2015 01:10:00 14.4 C 9.77 g/m*3 14.4 C 0 km/h
16 22-08-2015 01:15:00 14.3 C 9.71 g/m*3 14.3 C 0 km/h
17 22-08-2015 01:20:00 14.2 C 9.77 g/m*3 14.2 C 0 km/h
18 22-08-2015 01:25:00 14.2 C 9.77 g/m*3 14.2 C 0 km/h
19 22-08-2015 01:30:00 14.1 C 9.83 g/m*3 14.1 C 0 km/h
20 22-08-2015 01:35:00 13.9 C 9.71 g/m*3 13.9 C 0 km/h
21 22-08-2015 01:40:00 13.8 C 9.65 g/m*3 13.8 C 0 km/h
22 22-08-2015 01:45:00 13.7 C 9.59 g/m*3 13.7 C 0 km/h
23 22-08-2015 01:50:00 13.6 C 9.53 g/m*3 13.6 C 0 km/h
24 22-08-2015 01:55:00 13.6 C 9.53 g/m*3 13.6 C 0 km/h
25 22-08-2015 02:00:00 13.7 C 9.59 g/m*3 13.7 C 0 km/h
Sensor: Nr:Datum:Temp:Abs-Feuchte:Windchill:Wind:
Aussen-T/F 26 22-08-2015 02:05:00 13.7 C 9.59 g/m*3 13.7 C 0 km/h
27 22-08-2015 02:10:00 13.7 C 9.59 g/m*3 13.7 C 0 km/h
28 22-08-2015 02:15:00 13.7 C 9.59 g/m*3 13.7 C 0 km/h
29 22-08-2015 02:20:00 13.6 C 9.53 g/m*3 13.6 C 0 km/h
30 22-08-2015 02:25:00 13.6 C 9.65 g/m*3 13.6 C 0 km/h
31 22-08-2015 02:30:00 13.5 C 9.71 g/m*3 13.5 C 0 km/h
32 22-08-2015 02:35:00 13.4 C 9.53 g/m*3 13.4 C 0 km/h
33 22-08-2015 02:40:00 13.4 C 9.53 g/m*3 13.4 C 0 km/h
34 22-08-2015 02:45:00 13.3 C 9.59 g/m*3 13.3 C 0 km/h
35 22-08-2015 02:50:00 13.3 C 9.59 g/m*3 13.3 C 0 km/h
36 22-08-2015 02:55:00 13.3 C 9.59 g/m*3 13.3 C 0 km/h
37 22-08-2015 03:00:00 13.2 C 9.53 g/m*3 13.2 C 0 km/h
38 22-08-2015 03:05:00 13.2 C 9.53 g/m*3 13.2 C 0 km/h
39 22-08-2015 03:10:00 13.1 C 9.47 g/m*3 13.1 C 0 km/h
40 22-08-2015 03:15:00 13 C 9.53 g/m*3 13 C 0 km/h
41 22-08-2015 03:20:00 12.9 C 9.47 g/m*3 12.9 C 0 km/h
42 22-08-2015 03:25:00 12.9 C 9.47 g/m*3 12.9 C 0 km/h
43 22-08-2015 03:30:00 12.8 C 9.41 g/m*3 12.8 C 0 km/h
44 22-08-2015 03:35:00 12.8 C 9.41 g/m*3 12.8 C 0 km/h
45 22-08-2015 03:40:00 12.7 C 9.46 g/m*3 12.7 C 0 km/h
46 22-08-2015 03:45:00 12.6 C 9.4 g/m*3 12.6 C 0 km/h
47 22-08-2015 03:50:00 12.5 C 9.35 g/m*3 12.5 C 0 km/h
48 22-08-2015 03:55:00 12.4 C 9.29 g/m*3 12.4 C 0 km/h
49 22-08-2015 04:00:00 12.3 C 9.34 g/m*3 12.3 C 0 km/h
50 22-08-2015 04:05:00 12.3 C 9.34 g/m*3 12.3 C 0 km/h
Sensor: Nr:Datum:Temp:Abs-Feuchte:Windchill:Wind:
Aussen-T/F 51 22-08-2015 04:10:00 12.3 C 9.45 g/m*3 12.3 C 0 km/h
52 22-08-2015 04:15:00 12.3 C 9.45 g/m*3 12.3 C 0 km/h
53 22-08-2015 04:20:00 12.3 C 9.34 g/m*3 12.3 C 0 km/h
54 22-08-2015 04:25:00 12.3 C 9.34 g/m*3 12.3 C 0 km/h
55 22-08-2015 04:30:00 12.3 C 9.45 g/m*3 12.3 C 0 km/h
56 22-08-2015 04:35:00 12.2 C 9.39 g/m*3 12.2 C 0 km/h
57 22-08-2015 04:40:00 12.1 C 9.33 g/m*3 12.1 C 0 km/h
58 22-08-2015 04:45:00 12.1 C 9.33 g/m*3 12.1 C 0 km/h
59 22-08-2015 04:50:00 12.1 C 9.33 g/m*3 12.1 C 0 km/h
60 22-08-2015 04:55:00 12 C 9.38 g/m*3 12 C 0 km/h
61 22-08-2015 05:00:00 11.9 C 9.32 g/m*3 11.9 C 0 km/h
62 22-08-2015 05:05:00 11.9 C 9.32 g/m*3 11.9 C 0 km/h
63 22-08-2015 05:10:00 11.8 C 9.26 g/m*3 11.8 C 0 km/h
64 22-08-2015 05:15:00 11.8 C 9.26 g/m*3 11.8 C 0 km/h
65 22-08-2015 05:20:00 11.8 C 9.37 g/m*3 11.8 C 0 km/h
66 22-08-2015 05:25:00 11.7 C 9.31 g/m*3 11.7 C 0 km/h
67 22-08-2015 05:30:00 11.7 C 9.31 g/m*3 11.7 C 0 km/h
68 22-08-2015 05:35:00 11.7 C 9.31 g/m*3 11.7 C 0 km/h
69 22-08-2015 05:40:00 11.7 C 9.31 g/m*3 11.7 C 0 km/h
70 22-08-2015 05:45:00 11.6 C 9.25 g/m*3 11.6 C 0 km/h
71 22-08-2015 05:50:00 11.6 C 9.25 g/m*3 11.6 C 0 km/h
72 22-08-2015 05:55:00 11.5 C 9.19 g/m*3 11.5 C 0 km/h
73 22-08-2015 06:00:00 11.4 C 9.14 g/m*3 11.4 C 0 km/h
74 22-08-2015 06:05:00 11.4 C 9.24 g/m*3 11.4 C 0 km/h
75 22-08-2015 06:10:00 11.3 C 9.18 g/m*3 11.3 C 0 km/h
Sensor: Nr:Datum:Temp:Abs-Feuchte:Windchill:Wind:
Aussen-T/F 76 22-08-2015 06:15:00 11.3 C 9.28 g/m*3 11.3 C 0 km/h
77 22-08-2015 06:20:00 11.3 C 9.28 g/m*3 11.3 C 0 km/h
78 22-08-2015 06:25:00 11.2 C 9.22 g/m*3 11.2 C 0 km/h
79 22-08-2015 06:30:00 11.2 C 9.22 g/m*3 11.2 C 0 km/h
80 22-08-2015 06:35:00 11.2 C 9.22 g/m*3 11.2 C 0 km/h
81 22-08-2015 06:40:00 11.2 C 9.22 g/m*3 11.2 C 0 km/h
82 22-08-2015 06:45:00 11.2 C 9.22 g/m*3 11.2 C 0 km/h
83 22-08-2015 06:50:00 11.1 C 9.17 g/m*3 11.1 C 0 km/h
84 22-08-2015 06:55:00 11.2 C 9.33 g/m*3 11.2 C 0 km/h
85 22-08-2015 07:00:00 11.1 C 9.27 g/m*3 11.1 C 0 km/h
86 22-08-2015 07:05:00 11.2 C 9.33 g/m*3 11.2 C 0 km/h
87 22-08-2015 07:10:00 11.2 C 9.33 g/m*3 11.2 C 0 km/h
88 22-08-2015 07:15:00 11.2 C 9.33 g/m*3 11.2 C 0 km/h
89 22-08-2015 07:20:00 11.2 C 9.33 g/m*3 11.2 C 0 km/h
90 22-08-2015 07:25:00 11.3 C 9.38 g/m*3 11.3 C 0 km/h
91 22-08-2015 07:30:00 11.3 C 9.38 g/m*3 11.3 C 0 km/h
92 22-08-2015 07:35:00 11.3 C 9.38 g/m*3 11.3 C 0 km/h
93 22-08-2015 07:40:00 11.4 C 9.55 g/m*3 11.4 C 0 km/h
94 22-08-2015 07:45:00 11.4 C 9.55 g/m*3 11.4 C 0 km/h
95 22-08-2015 07:50:00 11.5 C 9.5 g/m*3 11.5 C 0 km/h
96 22-08-2015 07:55:00 11.6 C 9.56 g/m*3 11.6 C 0 km/h
97 22-08-2015 08:00:00 11.6 C 9.56 g/m*3 11.6 C 0 km/h
98 22-08-2015 08:05:00 11.7 C 9.62 g/m*3 11.7 C 0 km/h
99 22-08-2015 08:10:00 11.8 C 9.68 g/m*3 11.8 C 0 km/h
100 22-08-2015 08:15:00 11.8 C 9.68 g/m*3 11.8 C 0 km/h
Sensor: Nr:Datum:Temp:Abs-Feuchte:Windchill:Wind:
Aussen-T/F 101 22-08-2015 08:20:00 11.9 C 9.74 g/m*3 11.9 C 0 km/h
102 22-08-2015 08:25:00 12 C 9.8 g/m*3 12 C 0 km/h
103 22-08-2015 08:30:00 12.1 C 9.87 g/m*3 12.1 C 0 km/h
104 22-08-2015 08:35:00 12.1 C 9.87 g/m*3 12.1 C 0 km/h
105 22-08-2015 08:40:00 12.2 C 9.93 g/m*3 12.2 C 0 km/h
106 22-08-2015 08:45:00 12.3 C 9.99 g/m*3 12.3 C 0 km/h
107 22-08-2015 08:50:00 12.5 C 10.11 g/m*3 12.5 C 0 km/h
108 22-08-2015 08:55:00 12.6 C 10.18 g/m*3 12.6 C 0 km/h
109 22-08-2015 09:00:00 12.7 C 10.24 g/m*3 12.7 C 0 km/h
110 22-08-2015 09:05:00 12.8 C 10.19 g/m*3 12.8 C 0 km/h
111 22-08-2015 09:10:00 13 C 10.32 g/m*3 13 C 0 km/h
112 22-08-2015 09:15:00 13.2 C 10.45 g/m*3 13.2 C 0 km/h
113 22-08-2015 09:20:00 13.3 C 10.51 g/m*3 13.3 C 0 km/h
114 22-08-2015 09:25:00 13.5 C 10.53 g/m*3 13.5 C 0 km/h
115 22-08-2015 09:30:00 13.7 C 10.66 g/m*3 13.7 C 0 km/h
116 22-08-2015 09:35:00 13.8 C 10.72 g/m*3 13.8 C 0 km/h
117 22-08-2015 09:40:00 14 C 10.74 g/m*3 14 C 0 km/h
118 22-08-2015 09:45:00 14.2 C 10.87 g/m*3 14.2 C 0 km/h
119 22-08-2015 09:50:00 14.4 C 10.88 g/m*3 14.4 C 0 km/h
120 22-08-2015 09:55:00 14.7 C 11.08 g/m*3 14.7 C 1.6 km/h
121 22-08-2015 10:00:00 14.8 C 11.15 g/m*3 14.8 C 0 km/h
122 22-08-2015 10:05:00 15.1 C 11.22 g/m*3 15.1 C 0 km/h
123 22-08-2015 10:10:00 15.3 C 11.36 g/m*3 15.3 C 0 km/h
124 22-08-2015 10:15:00 15.5 C 11.37 g/m*3 15.5 C 0 km/h
125 22-08-2015 10:20:00 15.7 C 11.51 g/m*3 15.7 C 1.6 km/h
Sensor: Nr:Datum:Temp:Abs-Feuchte:Windchill:Wind:
Aussen-T/F 126 22-08-2015 10:25:00 15.9 C 11.51 g/m*3 15.9 C 0 km/h
127 22-08-2015 10:30:00 16.1 C 11.65 g/m*3 16.1 C 0 km/h
128 22-08-2015 10:35:00 16.3 C 11.65 g/m*3 16.3 C 0 km/h
129 22-08-2015 10:40:00 16.4 C 11.72 g/m*3 16.4 C 0 km/h
130 22-08-2015 10:45:00 16.6 C 11.87 g/m*3 16.6 C 0 km/h
131 22-08-2015 10:50:00 16.8 C 12.01 g/m*3 16.8 C 1.6 km/h
132 22-08-2015 10:55:00 17.1 C 12.08 g/m*3 17.1 C 0 km/h
133 22-08-2015 11:00:00 17.3 C 12.08 g/m*3 17.3 C 0 km/h
134 22-08-2015 11:05:00 17.5 C 12.23 g/m*3 17.5 C 0 km/h
135 22-08-2015 11:10:00 17.7 C 12.22 g/m*3 17.7 C 0 km/h
136 22-08-2015 11:15:00 18.1 C 12.21 g/m*3 18.1 C 1.6 km/h
137 22-08-2015 11:20:00 18.7 C 12.33 g/m*3 18.7 C 1.6 km/h
138 22-08-2015 11:25:00 19.1 C 11.8 g/m*3 19.1 C 3.2 km/h
139 22-08-2015 11:30:00 19.7 C 11.89 g/m*3 19.7 C 4.8 km/h
140 22-08-2015 11:35:00 20.3 C 11.78 g/m*3 20.3 C 4.8 km/h
141 22-08-2015 11:40:00 20.9 C 12.02 g/m*3 20.9 C 1.6 km/h
142 22-08-2015 11:45:00 21.3 C 11.37 g/m*3 21.3 C 11.3 km/h
143 22-08-2015 11:50:00 21.7 C 11.64 g/m*3 21.7 C 6.4 km/h
144 22-08-2015 11:55:00 22.2 C 11.39 g/m*3 22.2 C 8.1 km/h
145 22-08-2015 12:00:00 22.4 C 11.32 g/m*3 22.4 C 3.2 km/h
146 22-08-2015 12:05:00 22.7 C 10.91 g/m*3 22.7 C 8.1 km/h
147 22-08-2015 12:10:00 23 C 11.3 g/m*3 23 C 8.1 km/h
148 22-08-2015 12:15:00 23.2 C 11.02 g/m*3 23.2 C 8.1 km/h
149 22-08-2015 12:20:00 23.3 C 11.08 g/m*3 23.3 C 8.1 km/h
150 22-08-2015 12:25:00 23.7 C 11.12 g/m*3 23.7 C 9.7 km/h
Sensor: Nr:Datum:Temp:Abs-Feuchte:Windchill:Wind:
Aussen-T/F 151 22-08-2015 12:30:00 24.2 C 11 g/m*3 24.2 C 8.1 km/h
152 22-08-2015 12:35:00 24.7 C 11.32 g/m*3 24.7 C 6.4 km/h
153 22-08-2015 12:40:00 25 C 11.28 g/m*3 25 C 8.1 km/h
154 22-08-2015 12:45:00 25.3 C 11 g/m*3 25.3 C 11.3 km/h
155 22-08-2015 12:50:00 25.7 C 10.53 g/m*3 25.7 C 8.1 km/h
156 22-08-2015 12:55:00 25.8 C 10.83 g/m*3 25.8 C 6.4 km/h
157 22-08-2015 13:00:00 26.1 C 10.77 g/m*3 26.1 C 12.9 km/h
158 22-08-2015 13:05:00 26.5 C 10.26 g/m*3 26.5 C 6.4 km/h
159 22-08-2015 13:10:00 26.7 C 10.38 g/m*3 26.7 C 6.4 km/h
160 22-08-2015 13:15:00 26.9 C 10.24 g/m*3 26.9 C 4.8 km/h
161 22-08-2015 13:20:00 26.8 C 10.18 g/m*3 26.8 C 4.8 km/h
162 22-08-2015 13:25:00 26.8 C 10.44 g/m*3 26.8 C 8.1 km/h
163 22-08-2015 13:30:00 26.7 C 10.38 g/m*3 26.7 C 3.2 km/h
164 22-08-2015 13:35:00 26.7 C 10.63 g/m*3 26.7 C 6.4 km/h
165 22-08-2015 13:40:00 26.8 C 10.69 g/m*3 26.8 C 6.4 km/h
166 22-08-2015 13:45:00 27.1 C 10.61 g/m*3 27.1 C 9.7 km/h
167 22-08-2015 13:50:00 26.9 C 10.24 g/m*3 26.9 C 9.7 km/h
168 22-08-2015 13:55:00 26.9 C 10.24 g/m*3 26.9 C 8.1 km/h
169 22-08-2015 14:00:00 26.7 C 10.12 g/m*3 26.7 C 4.8 km/h
170 22-08-2015 14:05:00 26.7 C 9.87 g/m*3 26.7 C 6.4 km/h
171 22-08-2015 14:10:00 26.5 C 9.76 g/m*3 26.5 C 6.4 km/h
172 22-08-2015 14:15:00 26.8 C 10.18 g/m*3 26.8 C 14.5 km/h
173 22-08-2015 14:20:00 27.2 C 10.15 g/m*3 27.2 C 11.3 km/h
174 22-08-2015 14:25:00 27.4 C 9.74 g/m*3 27.4 C 9.7 km/h
175 22-08-2015 14:30:00 27.7 C 9.36 g/m*3 27.7 C 11.3 km/h
Sensor: Nr:Datum:Temp:Abs-Feuchte:Windchill:Wind:
Aussen-T/F 176 22-08-2015 14:35:00 27.6 C 9.31 g/m*3 27.6 C 11.3 km/h
177 22-08-2015 14:40:00 27.7 C 9.36 g/m*3 27.7 C 11.3 km/h
178 22-08-2015 14:45:00 27.8 C 10.22 g/m*3 27.8 C 9.7 km/h
179 22-08-2015 14:50:00 28.1 C 9.57 g/m*3 28.1 C 11.3 km/h
180 22-08-2015 14:55:00 28 C 9.25 g/m*3 28 C 11.3 km/h
181 22-08-2015 15:00:00 27.4 C 9.21 g/m*3 27.4 C 6.4 km/h
182 22-08-2015 15:05:00 27.6 C 9.04 g/m*3 27.6 C 6.4 km/h
183 22-08-2015 15:10:00 28.1 C 9.84 g/m*3 28.1 C 11.3 km/h
184 22-08-2015 15:15:00 28.5 C 9.22 g/m*3 28.5 C 6.4 km/h
185 22-08-2015 15:20:00 28.7 C 9.32 g/m*3 28.7 C 8.1 km/h
186 22-08-2015 15:25:00 28.9 C 9.14 g/m*3 28.9 C 8.1 km/h
187 22-08-2015 15:30:00 29 C 8.9 g/m*3 29 C 8.1 km/h
188 22-08-2015 15:35:00 29.1 C 9.24 g/m*3 29.1 C 8.1 km/h
189 22-08-2015 15:40:00 29.1 C 9.24 g/m*3 29.1 C 9.7 km/h
190 22-08-2015 15:45:00 28.9 C 9.14 g/m*3 28.9 C 12.9 km/h
191 22-08-2015 15:50:00 28.9 C 8.86 g/m*3 28.9 C 11.3 km/h
192 22-08-2015 15:55:00 29.2 C 9 g/m*3 29.2 C 6.4 km/h
193 22-08-2015 16:00:00 29.4 C 9.1 g/m*3 29.4 C 11.3 km/h
194 22-08-2015 16:05:00 29.3 C 8.76 g/m*3 29.3 C 11.3 km/h
195 22-08-2015 16:10:00 29.1 C 8.95 g/m*3 29.1 C 11.3 km/h
196 22-08-2015 16:15:00 28.8 C 8.81 g/m*3 28.8 C 8.1 km/h
197 22-08-2015 16:20:00 28.9 C 8.86 g/m*3 28.9 C 8.1 km/h
198 22-08-2015 16:25:00 28.9 C 8.86 g/m*3 28.9 C 11.3 km/h
199 22-08-2015 16:30:00 29.2 C 8.71 g/m*3 29.2 C 8.1 km/h
200 22-08-2015 16:35:00 29.3 C 8.76 g/m*3 29.3 C 9.7 km/h
Sensor: Nr:Datum:Temp:Abs-Feuchte:Windchill:Wind:
Aussen-T/F 201 22-08-2015 16:40:00 29.5 C 9.15 g/m*3 29.5 C 4.8 km/h
202 22-08-2015 16:45:00 29.8 C 9 g/m*3 29.8 C 8.1 km/h
203 22-08-2015 16:50:00 29.4 C 8.22 g/m*3 29.4 C 12.9 km/h
204 22-08-2015 16:55:00 28.8 C 8.24 g/m*3 28.8 C 8.1 km/h
205 22-08-2015 17:00:00 28.5 C 8.38 g/m*3 28.5 C 3.2 km/h
206 22-08-2015 17:05:00 28.3 C 8.29 g/m*3 28.3 C 4.8 km/h
207 22-08-2015 17:10:00 28.1 C 8.48 g/m*3 28.1 C 6.4 km/h
208 22-08-2015 17:15:00 28.1 C 8.75 g/m*3 28.1 C 9.7 km/h
209 22-08-2015 17:20:00 28 C 8.16 g/m*3 28 C 12.9 km/h
210 22-08-2015 17:25:00 27.8 C 8.34 g/m*3 27.8 C 8.1 km/h
211 22-08-2015 17:30:00 27.7 C 8.29 g/m*3 27.7 C 6.4 km/h
212 22-08-2015 17:35:00 27.6 C 8.51 g/m*3 27.6 C 9.7 km/h
213 22-08-2015 17:40:00 27.6 C 8.78 g/m*3 27.6 C 9.7 km/h
214 22-08-2015 17:45:00 27.8 C 8.61 g/m*3 27.8 C 8.1 km/h
215 22-08-2015 17:50:00 27.9 C 8.92 g/m*3 27.9 C 11.3 km/h
216 22-08-2015 17:55:00 28.1 C 9.02 g/m*3 28.1 C 9.7 km/h
217 22-08-2015 18:00:00 28.2 C 8.8 g/m*3 28.2 C 8.1 km/h
218 22-08-2015 18:05:00 28.3 C 8.57 g/m*3 28.3 C 9.7 km/h
219 22-08-2015 18:10:00 28.4 C 8.62 g/m*3 28.4 C 8.1 km/h
220 22-08-2015 18:15:00 28.6 C 8.71 g/m*3 28.6 C 9.7 km/h
221 22-08-2015 18:20:00 28.5 C 8.38 g/m*3 28.5 C 9.7 km/h
222 22-08-2015 18:25:00 28.4 C 8.62 g/m*3 28.4 C 8.1 km/h
223 22-08-2015 18:30:00 28 C 8.7 g/m*3 28 C 1.6 km/h
224 22-08-2015 18:35:00 27.6 C 8.51 g/m*3 27.6 C 4.8 km/h
225 22-08-2015 18:40:00 27.5 C 8.47 g/m*3 27.5 C 6.4 km/h
Sensor: Nr:Datum:Temp:Abs-Feuchte:Windchill:Wind:
Aussen-T/F 226 22-08-2015 18:45:00 27.6 C 9.58 g/m*3 27.6 C 6.4 km/h
227 22-08-2015 18:50:00 27.3 C 8.37 g/m*3 27.3 C 6.4 km/h
228 22-08-2015 18:55:00 27 C 9.01 g/m*3 27 C 1.6 km/h
229 22-08-2015 19:00:00 26.7 C 9.37 g/m*3 26.7 C 3.2 km/h
230 22-08-2015 19:05:00 26.6 C 8.31 g/m*3 26.6 C 3.2 km/h
231 22-08-2015 19:10:00 26.8 C 9.93 g/m*3 26.8 C 3.2 km/h
232 22-08-2015 19:15:00 26.9 C 8.45 g/m*3 26.9 C 6.4 km/h
233 22-08-2015 19:20:00 27.2 C 8.07 g/m*3 27.2 C 3.2 km/h
234 22-08-2015 19:25:00 27.2 C 9.63 g/m*3 27.2 C 3.2 km/h
235 22-08-2015 19:30:00 27 C 7.98 g/m*3 27 C 4.8 km/h
236 22-08-2015 19:35:00 26.7 C 10.12 g/m*3 26.7 C 0 km/h
237 22-08-2015 19:40:00 26.2 C 9.85 g/m*3 26.2 C 0 km/h
238 22-08-2015 19:45:00 25.9 C 10.41 g/m*3 25.9 C 3.2 km/h
239 22-08-2015 19:50:00 25.6 C 10.48 g/m*3 25.6 C 1.6 km/h
240 22-08-2015 19:55:00 25 C 10.13 g/m*3 25 C 1.6 km/h
241 22-08-2015 20:00:00 24.4 C 10.46 g/m*3 24.4 C 0 km/h
242 22-08-2015 20:05:00 23.9 C 10.6 g/m*3 23.9 C 1.6 km/h
243 22-08-2015 20:10:00 23.3 C 10.45 g/m*3 23.3 C 0 km/h
244 22-08-2015 20:15:00 22.4 C 10.33 g/m*3 22.4 C 0 km/h
245 22-08-2015 20:20:00 21.8 C 10.36 g/m*3 21.8 C 1.6 km/h
246 22-08-2015 20:25:00 21.4 C 10.12 g/m*3 21.4 C 1.6 km/h
247 22-08-2015 20:30:00 21.1 C 10.13 g/m*3 21.1 C 1.6 km/h
248 22-08-2015 20:35:00 20.8 C 9.96 g/m*3 20.8 C 1.6 km/h
249 22-08-2015 20:40:00 20.6 C 9.66 g/m*3 20.6 C 1.6 km/h
250 22-08-2015 20:45:00 20.4 C 9.55 g/m*3 20.4 C 1.6 km/h
Sensor: Nr:Datum:Temp:Abs-Feuchte:Windchill:Wind:
Aussen-T/F 251 22-08-2015 20:50:00 20.2 C 9.27 g/m*3 20.2 C 1.6 km/h
252 22-08-2015 20:55:00 20.2 C 9.27 g/m*3 20.2 C 1.6 km/h
253 22-08-2015 21:00:00 20.1 C 9.21 g/m*3 20.1 C 1.6 km/h
254 22-08-2015 21:05:00 19.9 C 9.11 g/m*3 19.9 C 1.6 km/h
255 22-08-2015 21:10:00 19.9 C 9.11 g/m*3 19.9 C 1.6 km/h
256 22-08-2015 21:15:00 19.8 C 9.22 g/m*3 19.8 C 1.6 km/h
257 22-08-2015 21:20:00 19.7 C 9.17 g/m*3 19.7 C 1.6 km/h
258 22-08-2015 21:25:00 19.7 C 9.17 g/m*3 19.7 C 1.6 km/h
259 22-08-2015 21:30:00 19.6 C 9.12 g/m*3 19.6 C 1.6 km/h
260 22-08-2015 21:35:00 19.5 C 9.06 g/m*3 19.5 C 1.6 km/h
261 22-08-2015 21:40:00 19.4 C 9.18 g/m*3 19.4 C 1.6 km/h
262 22-08-2015 21:45:00 19.3 C 9.12 g/m*3 19.3 C 1.6 km/h
263 22-08-2015 21:50:00 19.2 C 9.07 g/m*3 19.2 C 1.6 km/h
264 22-08-2015 21:55:00 19.1 C 9.18 g/m*3 19.1 C 1.6 km/h
265 22-08-2015 22:00:00 18.9 C 9.07 g/m*3 18.9 C 1.6 km/h
266 22-08-2015 22:05:00 18.8 C 9.02 g/m*3 18.8 C 0 km/h
267 22-08-2015 22:10:00 18.7 C 8.97 g/m*3 18.7 C 0 km/h
268 22-08-2015 22:15:00 18.6 C 9.07 g/m*3 18.6 C 0 km/h
269 22-08-2015 22:20:00 18.4 C 9.28 g/m*3 18.4 C 0 km/h
270 22-08-2015 22:25:00 18.3 C 9.07 g/m*3 18.3 C 0 km/h
271 22-08-2015 22:30:00 18.3 C 9.38 g/m*3 18.3 C 0 km/h
272 22-08-2015 22:35:00 18.2 C 9.48 g/m*3 18.2 C 0 km/h
273 22-08-2015 22:40:00 18.1 C 9.58 g/m*3 18.1 C 0 km/h
274 22-08-2015 22:45:00 18 C 9.68 g/m*3 18 C 0 km/h
275 22-08-2015 22:50:00 17.9 C 9.47 g/m*3 17.9 C 0 km/h
Sensor: Nr:Datum:Temp:Abs-Feuchte:Windchill:Wind:
Aussen-T/F 276 22-08-2015 22:55:00 17.8 C 9.26 g/m*3 17.8 C 0 km/h
277 22-08-2015 23:00:00 17.8 C 9.26 g/m*3 17.8 C 0 km/h
278 22-08-2015 23:05:00 17.7 C 9.2 g/m*3 17.7 C 0 km/h
279 22-08-2015 23:10:00 17.7 C 9.2 g/m*3 17.7 C 0 km/h
280 22-08-2015 23:15:00 17.6 C 9.3 g/m*3 17.6 C 0 km/h
281 22-08-2015 23:20:00 17.6 C 9.15 g/m*3 17.6 C 0 km/h
282 22-08-2015 23:25:00 17.6 C 9.45 g/m*3 17.6 C 0 km/h
283 22-08-2015 23:30:00 17.5 C 9.39 g/m*3 17.5 C 0 km/h
284 22-08-2015 23:35:00 17.4 C 9.63 g/m*3 17.4 C 0 km/h
285 22-08-2015 23:40:00 17.3 C 9.43 g/m*3 17.3 C 0 km/h
286 22-08-2015 23:45:00 17.3 C 9.58 g/m*3 17.3 C 0 km/h
287 22-08-2015 23:50:00 17.2 C 9.37 g/m*3 17.2 C 0 km/h
288 22-08-2015 23:55:00 17.2 C 9.67 g/m*3 17.2 C 0 km/h

Legende:
   Min
   Max


Maximal/Minimal-Werte vom 22.08.2015 - 22.08.2015

Sensor Min Max Avg
Temp
(Aussen-T/F)
11.1 °C
22-08-2015  06:50:00
29.8 °C
22-08-2015  16:45:00
19.11 °C
Abs-Feuchte
(Aussen-T/F)
7.98 g/m*3
22-08-2015  19:30:00
12.33 g/m*3
22-08-2015  11:20:00
9.7 g/m*3
Windchill
(Aussen-T/F)
11.1 C
22-08-2015  06:50:00
29.8 C
22-08-2015  16:45:00
19.04 C

Die Daten stammen von einer Davis Vantage Pro 2 Wetter-Station und werden unter Linux mit der Software wview2wettercgi und aufbereitet. Alle Angaben erfolgen ohne Gewähr für ihre Vollständigkeit oder Richtigkeit.
Kontakt: Rainer Krienke krienke@uni-koblenz.de . Meine Webseiten an der Uni Koblenz oder privat.
Version: $Revision: 0.78 $